Ashwood, Mississippi
Current Conditions -  °F | °C
As of 6:15 PM on Friday 24 Oct 2014 (Local Time) from KHEZ Reporting Station
Clear Clear  
Wind Chill: 18°   Ceiling: Unl
Heat Index: 18°   Visibility: 10mi
Dew Point: 10°   Wind: 0mph
Humidity: 59%   Direction: NA
Pressure: 30.1"   Gusts: NA
Location:  31.1784°N, 91.3525°W
Report Text: KHEZ 242315Z AUTO 00000KT 10SM CLR 18/10 A3010 RMK AO1
Loading
Personal Weather Stations






























Interactive Weather Map
Tropical Storm Tracking
New forecast layout! Learn more

10-Day Weather Forecast

Advertisements
Track Severe Weather on mobile